Time;durP1;ratioP1;P1;durP2;ratioP2;P2;SDS_P1;SDS_P2;PMS_P1;PMS_P2;Temp;Humidity;BMP_temperature;BMP_pressure;BME280_temperature;BME280_humidity;BME280_pressure;Samples;Min_cycle;Max_cycle;Signal;HPM_P1;HPM_P2
2023/03/18 00:01:03;;;;;;;6.07;3.40;;;12.00;99.90;;;;;;5047775;28;20620;-67
2023/03/18 00:03:32;;;;;;;6.50;3.45;;;12.00;99.90;;;;;;5047686;28;20076;-68
2023/03/18 00:06:09;;;;;;;7.93;3.97;;;12.00;99.90;;;;;;5047512;28;20120;-67
2023/03/18 00:08:34;;;;;;;4.22;3.35;;;12.00;99.90;;;;;;5047749;28;20033;-67
2023/03/18 00:11:00;;;;;;;9.48;3.63;;;12.00;99.90;;;;;;5047577;28;20498;-67
2023/03/18 00:13:26;;;;;;;5.78;3.65;;;12.00;99.90;;;;;;5047603;28;20673;-68
2023/03/18 00:15:53;;;;;;;7.38;3.78;;;12.10;99.90;;;;;;5047267;28;20060;-67
2023/03/18 00:18:19;;;;;;;10.40;4.63;;;12.10;99.90;;;;;;5047439;28;20405;-67
2023/03/18 00:20:44;;;;;;;8.15;3.92;;;12.10;99.90;;;;;;5047380;28;20040;-67
2023/03/18 00:23:11;;;;;;;8.07;4.00;;;12.10;99.90;;;;;;5047201;28;20040;-67
2023/03/18 00:25:37;;;;;;;26.55;5.15;;;12.00;99.90;;;;;;5047102;28;20075;-67
2023/03/18 00:28:06;;;;;;;10.48;3.75;;;12.00;99.90;;;;;;5047532;28;20048;-68
2023/03/18 00:30:33;;;;;;;10.55;4.13;;;12.10;99.90;;;;;;5047464;28;20071;-67
2023/03/18 00:32:59;;;;;;;8.43;3.67;;;12.10;99.90;;;;;;5049031;28;20040;-67
2023/03/18 00:35:29;;;;;;;6.70;3.55;;;12.00;99.90;;;;;;5051094;28;20086;-68
2023/03/18 00:37:57;;;;;;;8.50;3.95;;;12.10;99.90;;;;;;5046390;28;20033;-67
2023/03/18 00:40:29;;;;;;;7.78;4.10;;;12.00;99.90;;;;;;5050695;28;20120;-68
2023/03/18 00:43:06;;;;;;;10.05;4.80;;;12.00;99.90;;;;;;5046811;28;20041;-67
2023/03/18 00:45:35;;;;;;;6.70;4.28;;;12.00;99.90;;;;;;5050430;28;20053;-68
2023/03/18 00:48:02;;;;;;;6.13;4.00;;;12.00;99.90;;;;;;5049287;28;20844;-67
2023/03/18 00:50:28;;;;;;;4.97;3.55;;;12.00;99.90;;;;;;5051156;28;20099;-67
2023/03/18 00:52:54;;;;;;;7.82;4.07;;;12.00;99.90;;;;;;5051171;28;20037;-68
2023/03/18 00:55:19;;;;;;;4.95;3.90;;;11.90;99.90;;;;;;5050812;28;20111;-67
2023/03/18 00:57:45;;;;;;;6.75;3.97;;;11.90;99.90;;;;;;5044679;28;20069;-67
2023/03/18 01:00:15;;;;;;;7.28;4.32;;;11.90;99.90;;;;;;5045231;28;20048;-67
2023/03/18 01:02:43;;;;;;;9.85;4.10;;;11.90;99.90;;;;;;5041087;28;20071;-68
2023/03/18 01:05:11;;;;;;;7.97;4.15;;;11.90;99.90;;;;;;5036511;28;20120;-68
2023/03/18 01:07:37;;;;;;;6.78;4.22;;;11.90;99.90;;;;;;5050270;28;20059;-68
2023/03/18 01:10:05;;;;;;;6.75;3.88;;;11.90;99.90;;;;;;5050227;28;20119;-67
2023/03/18 01:12:32;;;;;;;7.28;4.18;;;11.90;99.90;;;;;;5050019;28;20055;-67
2023/03/18 01:14:58;;;;;;;7.90;3.88;;;11.90;99.90;;;;;;5049680;28;20099;-67
2023/03/18 01:17:24;;;;;;;6.22;3.83;;;11.80;99.90;;;;;;5050209;28;20091;-67
2023/03/18 01:19:50;;;;;;;6.82;4.30;;;11.80;99.90;;;;;;5050053;28;20117;-68
2023/03/18 01:22:15;;;;;;;5.47;4.10;;;11.70;99.90;;;;;;5050072;28;20124;-67
2023/03/18 01:24:41;;;;;;;7.65;4.20;;;11.70;99.90;;;;;;5049744;28;20140;-67
2023/03/18 01:27:07;;;;;;;10.07;4.50;;;11.60;99.90;;;;;;5050085;28;20068;-67
2023/03/18 01:29:34;;;;;;;6.50;3.78;;;11.60;99.90;;;;;;5049723;28;20041;-68
2023/03/18 01:32:00;;;;;;;7.03;3.85;;;11.60;99.90;;;;;;5049740;28;20083;-68
2023/03/18 01:34:26;;;;;;;9.57;3.78;;;11.50;99.90;;;;;;5049300;28;20498;-67
2023/03/18 01:36:52;;;;;;;10.48;4.43;;;11.50;99.90;;;;;;5049769;28;20084;-67
2023/03/18 01:39:18;;;;;;;7.93;4.53;;;11.40;99.90;;;;;;5049417;28;20052;-67
2023/03/18 01:41:44;;;;;;;7.22;3.95;;;11.40;99.90;;;;;;5049785;28;20041;-67
2023/03/18 01:44:14;;;;;;;11.98;4.60;;;11.40;99.90;;;;;;5048668;28;20045;-67
2023/03/18 01:46:43;;;;;;;7.55;4.40;;;11.30;99.90;;;;;;5049409;28;20037;-68
2023/03/18 01:49:17;;;;;;;8.15;4.28;;;11.30;99.90;;;;;;5049537;28;20044;-67
2023/03/18 01:51:49;;;;;;;9.20;4.90;;;11.30;99.90;;;;;;5049655;28;20072;-67
2023/03/18 01:54:17;;;;;;;12.18;5.22;;;11.40;99.90;;;;;;5049382;28;20367;-67
2023/03/18 01:56:45;;;;;;;10.68;4.72;;;11.30;99.90;;;;;;5049259;28;20128;-67
2023/03/18 01:59:12;;;;;;;11.85;4.82;;;11.40;99.90;;;;;;5049388;28;20112;-67
2023/03/18 02:01:50;;;;;;;6.07;4.45;;;11.30;99.90;;;;;;5049339;28;20077;-67
2023/03/18 02:04:17;;;;;;;8.18;4.60;;;11.30;99.90;;;;;;5049180;28;20124;-67
2023/03/18 02:06:43;;;;;;;8.40;4.75;;;11.20;99.90;;;;;;5049232;28;20405;-67
2023/03/18 02:09:10;;;;;;;7.00;4.25;;;11.20;99.90;;;;;;5049134;28;20452;-67
2023/03/18 02:11:41;;;;;;;6.18;4.13;;;11.20;99.90;;;;;;5049036;28;20044;-67
2023/03/18 02:14:09;;;;;;;7.00;4.25;;;11.20;99.90;;;;;;5048961;28;20037;-67
2023/03/18 02:16:49;;;;;;;8.82;4.72;;;11.20;99.90;;;;;;5048891;28;20537;-67
2023/03/18 02:19:56;;;;;;;6.95;4.90;;;11.20;99.90;;;;;;5048909;28;20520;-67
2023/03/18 02:22:52;;;;;;;5.75;4.25;;;11.10;99.90;;;;;;5041320;28;20049;-67
2023/03/18 02:25:36;;;;;;;9.90;5.00;;;11.10;99.90;;;;;;5025825;28;20188;-67
2023/03/18 02:28:08;;;;;;;8.90;4.72;;;11.10;99.90;;;;;;5026152;28;20521;-67
2023/03/18 02:30:46;;;;;;;7.97;5.40;;;11.00;99.90;;;;;;5025963;28;20134;-68
2023/03/18 02:33:15;;;;;;;8.32;5.43;;;11.00;99.90;;;;;;5026092;28;20052;-67
2023/03/18 02:35:43;;;;;;;10.95;5.38;;;11.10;99.90;;;;;;5021005;28;20053;-67
2023/03/18 02:38:09;;;;;;;10.95;5.05;;;11.00;99.90;;;;;;5025671;28;20045;-67
2023/03/18 02:40:40;;;;;;;11.10;6.00;;;11.00;99.90;;;;;;5023760;28;20110;-68
2023/03/18 02:43:31;;;;;;;11.43;5.18;;;11.00;99.90;;;;;;5025737;28;20053;-68
2023/03/18 02:46:11;;;;;;;8.98;5.40;;;11.00;99.90;;;;;;5025430;28;20057;-67
2023/03/18 02:48:41;;;;;;;9.85;5.75;;;11.00;99.90;;;;;;5025651;28;20136;-67
2023/03/18 02:51:08;;;;;;;7.25;5.65;;;10.90;99.90;;;;;;5025322;28;20061;-67
2023/03/18 02:53:34;;;;;;;12.05;5.82;;;10.90;99.90;;;;;;5025303;28;20049;-67
2023/03/18 02:56:00;;;;;;;9.43;6.05;;;10.90;99.90;;;;;;5024530;28;20057;-67
2023/03/18 02:58:26;;;;;;;12.65;6.10;;;10.80;99.90;;;;;;5025426;28;20049;-67
2023/03/18 03:00:53;;;;;;;10.43;5.18;;;10.80;99.90;;;;;;5028835;28;20710;-67
2023/03/18 03:03:19;;;;;;;13.70;6.82;;;10.80;99.90;;;;;;5048107;28;20076;-68
2023/03/18 03:05:45;;;;;;;9.73;5.85;;;10.90;99.90;;;;;;5047980;28;20577;-67
2023/03/18 03:08:11;;;;;;;9.50;5.78;;;10.90;99.90;;;;;;5048313;28;20052;-68
2023/03/18 03:10:37;;;;;;;11.15;6.15;;;10.90;99.90;;;;;;5047868;28;20049;-68
2023/03/18 03:13:03;;;;;;;9.02;5.57;;;10.90;99.90;;;;;;5048218;28;20397;-67
2023/03/18 03:15:29;;;;;;;9.75;5.93;;;10.80;99.90;;;;;;5047814;28;20037;-67
2023/03/18 03:17:55;;;;;;;11.35;6.38;;;10.80;99.90;;;;;;5043012;28;20164;-67
2023/03/18 03:20:20;;;;;;;15.90;6.35;;;10.80;99.90;;;;;;5047467;28;20107;-67
2023/03/18 03:22:46;;;;;;;11.90;6.90;;;10.80;99.90;;;;;;5047781;28;20551;-68
2023/03/18 03:25:13;;;;;;;13.02;6.38;;;10.70;99.90;;;;;;5047614;28;20079;-68
2023/03/18 03:27:40;;;;;;;8.55;6.35;;;10.80;99.90;;;;;;5047614;28;20112;-68
2023/03/18 03:30:08;;;;;;;10.57;6.60;;;10.80;99.90;;;;;;5047487;28;20113;-67
2023/03/18 03:32:34;;;;;;;14.05;6.95;;;10.80;99.90;;;;;;5047691;28;20110;-67
2023/03/18 03:35:00;;;;;;;13.55;7.55;;;10.70;99.90;;;;;;5047111;28;20073;-67
2023/03/18 03:37:26;;;;;;;12.35;8.00;;;10.70;99.90;;;;;;5047899;28;20041;-67
2023/03/18 03:39:52;;;;;;;11.27;6.53;;;10.70;99.90;;;;;;5047594;28;20044;-67
2023/03/18 03:42:18;;;;;;;15.95;7.82;;;10.60;99.90;;;;;;5047787;28;20064;-67
2023/03/18 03:44:45;;;;;;;11.50;7.20;;;10.70;99.90;;;;;;5047402;28;20045;-67
2023/03/18 03:47:11;;;;;;;13.68;7.60;;;10.60;99.90;;;;;;5048010;28;20573;-67
2023/03/18 03:49:36;;;;;;;18.02;7.95;;;10.70;99.90;;;;;;5047250;28;20112;-68
2023/03/18 03:52:02;;;;;;;15.18;7.05;;;10.60;99.90;;;;;;5047743;28;20088;-67
2023/03/18 03:54:28;;;;;;;10.07;6.97;;;10.60;99.90;;;;;;5047375;28;20098;-68
2023/03/18 03:56:54;;;;;;;11.77;7.15;;;10.60;99.90;;;;;;5047973;28;20033;-68
2023/03/18 03:59:19;;;;;;;12.70;7.13;;;10.60;99.90;;;;;;5047764;28;20493;-68
2023/03/18 04:01:45;;;;;;;12.43;7.00;;;10.50;99.90;;;;;;5047603;28;20045;-68
2023/03/18 04:04:12;;;;;;;12.52;6.97;;;10.50;99.90;;;;;;5047420;28;20045;-68
2023/03/18 04:06:38;;;;;;;13.00;7.20;;;10.50;99.90;;;;;;5047550;28;20568;-68
2023/03/18 04:09:03;;;;;;;13.02;7.07;;;10.50;99.90;;;;;;5050835;28;20132;-67
2023/03/18 04:11:29;;;;;;;10.82;6.50;;;10.50;99.90;;;;;;5051461;28;20041;-67
2023/03/18 04:13:55;;;;;;;10.15;6.90;;;10.50;99.90;;;;;;5051359;28;20045;-67
2023/03/18 04:16:21;;;;;;;12.02;6.75;;;10.40;99.90;;;;;;5051484;28;20049;-67
2023/03/18 04:18:47;;;;;;;14.35;7.18;;;10.40;99.90;;;;;;5051266;28;20672;-68
2023/03/18 04:21:13;;;;;;;13.00;7.72;;;10.40;99.90;;;;;;5051407;28;20036;-67
2023/03/18 04:23:39;;;;;;;11.05;6.72;;;10.30;99.90;;;;;;5051213;28;20544;-67
2023/03/18 04:26:05;;;;;;;11.30;7.38;;;10.30;99.90;;;;;;5050918;28;20044;-67
2023/03/18 04:28:31;;;;;;;12.95;7.13;;;10.20;99.90;;;;;;5051009;28;20044;-67
2023/03/18 04:30:57;;;;;;;12.80;7.00;;;10.20;99.90;;;;;;5050873;28;20053;-67
2023/03/18 04:33:23;;;;;;;12.48;6.90;;;10.20;99.90;;;;;;5051209;28;20041;-68
2023/03/18 04:35:48;;;;;;;12.25;7.30;;;10.20;99.90;;;;;;5050604;28;20037;-67
2023/03/18 04:38:14;;;;;;;16.33;7.32;;;10.20;99.90;;;;;;5051009;28;20087;-67
2023/03/18 04:40:41;;;;;;;11.48;7.28;;;10.10;99.90;;;;;;5051092;28;20036;-67
2023/03/18 04:43:08;;;;;;;20.05;7.80;;;10.10;99.90;;;;;;5051044;28;20060;-67
2023/03/18 04:45:34;;;;;;;12.90;7.55;;;10.10;99.90;;;;;;5050650;28;20102;-68
2023/03/18 04:48:00;;;;;;;20.65;8.02;;;10.10;99.90;;;;;;5051048;28;20043;-68
2023/03/18 04:50:27;;;;;;;14.68;8.10;;;10.10;99.90;;;;;;5050963;28;20040;-68
2023/03/18 04:52:53;;;;;;;11.10;7.57;;;10.10;99.90;;;;;;5050887;28;20045;-68
2023/03/18 04:55:20;;;;;;;12.98;7.30;;;10.10;99.90;;;;;;5050614;28;20041;-68
2023/03/18 04:57:47;;;;;;;11.25;7.68;;;10.00;99.90;;;;;;5050515;28;20033;-68
2023/03/18 05:00:16;;;;;;;16.77;8.30;;;10.00;99.90;;;;;;5050224;28;20584;-68
2023/03/18 05:02:42;;;;;;;16.10;7.65;;;10.00;99.90;;;;;;5050508;28;20041;-68
2023/03/18 05:05:09;;;;;;;18.65;8.07;;;10.00;99.90;;;;;;5050116;28;20049;-68
2023/03/18 05:07:35;;;;;;;11.75;7.68;;;10.00;99.90;;;;;;5050190;28;20560;-69
2023/03/18 05:10:00;;;;;;;9.77;7.68;;;10.00;99.90;;;;;;5050176;28;20037;-67
2023/03/18 05:12:26;;;;;;;11.40;7.47;;;10.00;99.90;;;;;;5049970;28;20045;-67
2023/03/18 05:14:52;;;;;;;12.15;7.90;;;10.00;99.90;;;;;;5049719;28;20118;-68
2023/03/18 05:17:18;;;;;;;9.82;7.00;;;10.00;99.90;;;;;;5050345;28;20083;-68
2023/03/18 05:19:45;;;;;;;15.10;8.30;;;10.00;99.90;;;;;;5049091;28;20071;-67
2023/03/18 05:22:12;;;;;;;12.70;8.00;;;10.00;99.90;;;;;;5050275;28;20033;-68
2023/03/18 05:24:39;;;;;;;14.57;7.95;;;10.00;99.90;;;;;;5049601;28;20037;-68
2023/03/18 05:27:05;;;;;;;9.75;7.50;;;10.00;99.90;;;;;;5050088;28;20044;-68
2023/03/18 05:29:31;;;;;;;16.98;8.10;;;10.10;99.90;;;;;;5048565;28;20045;-68
2023/03/18 05:31:57;;;;;;;13.30;8.18;;;10.10;99.90;;;;;;5049923;28;20053;-67
2023/03/18 05:34:23;;;;;;;14.57;9.60;;;10.00;99.90;;;;;;5049634;28;20147;-68
2023/03/18 05:36:49;;;;;;;11.82;7.97;;;10.10;99.90;;;;;;5049779;28;20128;-67
2023/03/18 05:39:15;;;;;;;15.65;8.30;;;10.10;99.90;;;;;;5048178;28;20494;-68
2023/03/18 05:41:41;;;;;;;13.55;8.30;;;10.10;99.90;;;;;;5049592;28;20095;-67
2023/03/18 05:44:07;;;;;;;14.85;8.32;;;10.10;99.90;;;;;;5049193;28;20045;-67
2023/03/18 05:46:32;;;;;;;12.65;8.25;;;10.10;99.90;;;;;;5049801;28;20049;-67
2023/03/18 05:48:58;;;;;;;13.77;8.02;;;10.10;99.90;;;;;;5049510;28;20089;-67
2023/03/18 05:51:25;;;;;;;19.83;8.65;;;10.10;99.90;;;;;;5048181;28;20059;-67
2023/03/18 05:53:50;;;;;;;13.23;8.93;;;10.10;99.90;;;;;;5048190;28;20041;-67
2023/03/18 05:56:17;;;;;;;14.80;8.98;;;10.10;99.90;;;;;;5046434;28;20044;-67
2023/03/18 05:58:42;;;;;;;17.27;9.25;;;10.20;99.90;;;;;;5046872;28;20081;-67
2023/03/18 06:01:08;;;;;;;12.82;9.23;;;10.20;99.90;;;;;;5047407;28;20037;-67
2023/03/18 06:03:34;;;;;;;18.13;9.10;;;10.20;99.90;;;;;;5066929;28;20119;-68
2023/03/18 06:06:00;;;;;;;16.98;9.75;;;10.20;99.90;;;;;;5065618;28;20099;-67
2023/03/18 06:08:26;;;;;;;13.93;8.63;;;10.20;99.90;;;;;;5048750;28;20148;-67
2023/03/18 06:10:53;;;;;;;14.02;8.60;;;10.10;99.90;;;;;;5047916;28;20981;-67
2023/03/18 06:13:18;;;;;;;18.65;9.30;;;10.10;99.90;;;;;;5048306;28;20048;-68
2023/03/18 06:15:45;;;;;;;14.23;9.02;;;10.10;99.90;;;;;;5047794;28;20045;-67
2023/03/18 06:18:12;;;;;;;15.32;9.18;;;10.10;99.90;;;;;;5040671;28;20044;-68
2023/03/18 06:20:37;;;;;;;13.70;8.63;;;10.10;99.90;;;;;;5047485;28;20045;-68
2023/03/18 06:23:04;;;;;;;16.58;9.23;;;10.10;99.90;;;;;;5049020;28;20036;-67
2023/03/18 06:25:30;;;;;;;17.85;8.82;;;10.10;99.90;;;;;;5048584;28;20053;-67
2023/03/18 06:27:56;;;;;;;20.00;9.40;;;10.10;99.90;;;;;;5041239;28;20037;-67
2023/03/18 06:30:21;;;;;;;16.13;8.93;;;10.20;99.90;;;;;;5048439;28;20107;-67
2023/03/18 06:32:47;;;;;;;17.58;9.10;;;10.20;99.90;;;;;;5048586;28;20080;-67
2023/03/18 06:35:14;;;;;;;15.40;9.40;;;10.10;99.90;;;;;;5048177;28;20072;-67
2023/03/18 06:37:41;;;;;;;15.13;8.93;;;10.10;99.90;;;;;;5048811;28;20051;-67
2023/03/18 06:40:08;;;;;;;14.70;9.30;;;10.10;99.90;;;;;;5048512;28;20049;-67
2023/03/18 06:42:34;;;;;;;15.90;8.80;;;10.20;99.90;;;;;;5048282;28;20079;-68
2023/03/18 06:45:00;;;;;;;17.25;9.55;;;10.20;99.90;;;;;;5048422;28;20051;-68
2023/03/18 06:47:26;;;;;;;17.33;9.25;;;10.20;99.90;;;;;;5048700;28;20041;-68
2023/03/18 06:49:52;;;;;;;15.13;8.73;;;10.20;99.90;;;;;;5048355;28;20045;-68
2023/03/18 06:52:18;;;;;;;13.05;8.60;;;10.30;99.90;;;;;;5048590;28;20114;-67
2023/03/18 06:54:44;;;;;;;15.88;9.38;;;10.30;99.90;;;;;;5047906;28;20032;-67
2023/03/18 06:57:11;;;;;;;16.33;8.88;;;10.30;99.90;;;;;;5048290;28;20045;-67
2023/03/18 06:59:37;;;;;;;16.20;9.50;;;10.30;99.90;;;;;;5048422;28;20079;-68
2023/03/18 07:02:04;;;;;;;15.90;9.00;;;10.30;99.90;;;;;;5048430;28;20084;-67
2023/03/18 07:04:30;;;;;;;14.77;8.57;;;10.40;99.90;;;;;;5048000;28;20066;-67
2023/03/18 07:06:56;;;;;;;13.40;9.50;;;10.40;99.90;;;;;;5048117;28;20497;-67
2023/03/18 07:09:23;;;;;;;16.33;9.00;;;10.40;99.90;;;;;;5048205;28;20049;-67
2023/03/18 07:11:49;;;;;;;19.08;10.05;;;10.40;99.90;;;;;;5048016;28;20048;-67
2023/03/18 07:14:15;;;;;;;24.05;10.15;;;10.40;99.90;;;;;;5047889;28;20589;-68
2023/03/18 07:16:40;;;;;;;18.70;10.15;;;10.40;99.90;;;;;;5047935;28;20175;-68
2023/03/18 07:19:06;;;;;;;17.25;9.45;;;10.40;99.90;;;;;;5048100;28;20139;-68
2023/03/18 07:21:32;;;;;;;14.77;8.90;;;10.40;99.90;;;;;;5048125;28;20735;-68
2023/03/18 07:23:58;;;;;;;20.55;10.48;;;10.40;99.90;;;;;;5047812;28;20048;-68
2023/03/18 07:26:25;;;;;;;17.50;10.43;;;10.40;99.90;;;;;;5046800;28;20036;-69
2023/03/18 07:28:50;;;;;;;20.70;10.63;;;10.50;99.90;;;;;;5048176;28;20424;-68
2023/03/18 07:31:16;;;;;;;17.75;10.40;;;10.50;99.90;;;;;;5047808;28;20051;-67
2023/03/18 07:33:42;;;;;;;24.67;12.70;;;10.50;99.90;;;;;;5047999;28;20163;-68
2023/03/18 07:36:08;;;;;;;19.38;10.95;;;10.50;99.90;;;;;;5047532;28;20045;-68
2023/03/18 07:38:33;;;;;;;22.02;9.98;;;10.50;99.90;;;;;;5047642;28;20029;-68
2023/03/18 07:40:59;;;;;;;20.95;11.07;;;10.50;99.90;;;;;;5047690;28;20060;-68
2023/03/18 07:43:25;;;;;;;22.85;11.40;;;10.50;99.90;;;;;;5052388;28;20555;-68
2023/03/18 07:45:51;;;;;;;23.02;12.68;;;10.50;99.90;;;;;;5054351;28;20171;-68
2023/03/18 07:48:16;;;;;;;22.98;12.05;;;10.50;99.90;;;;;;5052906;28;20095;-68
2023/03/18 07:50:42;;;;;;;21.25;12.18;;;10.50;99.90;;;;;;5054295;28;20040;-68
2023/03/18 07:53:08;;;;;;;20.63;12.63;;;10.50;99.90;;;;;;5054368;28;20041;-68
2023/03/18 07:55:34;;;;;;;27.88;13.95;;;10.40;99.90;;;;;;5054290;28;20037;-68
2023/03/18 07:57:59;;;;;;;23.02;13.55;;;10.40;99.90;;;;;;5054269;28;20037;-68
2023/03/18 08:00:26;;;;;;;25.15;14.23;;;10.40;99.90;;;;;;5054464;28;20033;-68
2023/03/18 08:02:51;;;;;;;25.92;13.02;;;10.50;99.90;;;;;;5061758;28;20467;-67
2023/03/18 08:05:18;;;;;;;23.30;14.40;;;10.50;99.90;;;;;;5055734;28;20128;-68
2023/03/18 08:07:44;;;;;;;26.42;14.32;;;10.50;99.90;;;;;;5047753;28;20045;-68
2023/03/18 08:10:10;;;;;;;24.65;14.30;;;10.50;99.90;;;;;;5048587;28;20116;-68
2023/03/18 08:12:37;;;;;;;23.25;14.05;;;10.60;99.90;;;;;;5053570;28;20444;-70
2023/03/18 08:15:03;;;;;;;26.20;13.80;;;10.50;99.90;;;;;;5053762;28;20044;-68
2023/03/18 08:17:29;;;;;;;26.42;15.63;;;10.60;99.90;;;;;;5054025;28;20044;-67
2023/03/18 08:19:55;;;;;;;25.48;14.77;;;10.60;99.90;;;;;;5054089;28;20108;-67
2023/03/18 08:22:21;;;;;;;29.55;16.02;;;10.60;99.90;;;;;;5054023;28;20139;-67
2023/03/18 08:24:46;;;;;;;27.23;16.10;;;10.70;99.90;;;;;;5054310;28;20526;-67
2023/03/18 08:27:12;;;;;;;29.83;15.40;;;10.70;99.90;;;;;;5054486;28;20051;-67
2023/03/18 08:29:38;;;;;;;27.23;16.30;;;10.70;99.90;;;;;;5054290;28;20044;-67
2023/03/18 08:32:04;;;;;;;30.48;16.50;;;10.80;99.90;;;;;;5052728;28;20067;-67
2023/03/18 08:34:29;;;;;;;25.38;15.93;;;10.80;99.90;;;;;;5053770;28;20040;-68
2023/03/18 08:36:55;;;;;;;27.15;15.43;;;10.90;99.90;;;;;;5053987;28;20029;-67
2023/03/18 08:39:21;;;;;;;28.92;15.95;;;11.00;99.90;;;;;;5054055;28;20461;-67
2023/03/18 08:41:47;;;;;;;29.42;17.13;;;11.10;99.90;;;;;;5054025;28;20071;-67
2023/03/18 08:44:14;;;;;;;31.23;17.55;;;11.20;99.90;;;;;;5053488;28;20047;-68
2023/03/18 08:46:40;;;;;;;32.53;17.50;;;11.30;99.90;;;;;;5052732;28;20087;-67
2023/03/18 08:49:06;;;;;;;34.75;18.58;;;11.40;99.90;;;;;;5052805;28;20072;-71
2023/03/18 08:51:33;;;;;;;27.92;17.13;;;11.60;99.90;;;;;;5053600;28;20052;-70
2023/03/18 08:53:59;;;;;;;33.05;18.33;;;11.60;99.90;;;;;;5051337;28;20084;-71
2023/03/18 08:56:27;;;;;;;33.00;18.58;;;11.70;99.90;;;;;;5049439;28;20059;-70
2023/03/18 08:58:53;;;;;;;32.90;18.05;;;11.70;99.90;;;;;;5050882;28;20051;-71
2023/03/18 09:01:21;;;;;;;29.15;17.42;;;11.70;99.90;;;;;;5050725;28;20758;-70
2023/03/18 09:03:49;;;;;;;26.55;16.40;;;11.80;99.90;;;;;;5050303;28;20049;-71
2023/03/18 09:06:15;;;;;;;31.27;17.85;;;11.80;99.90;;;;;;5050383;28;20052;-69
2023/03/18 09:08:42;;;;;;;35.78;17.60;;;11.90;99.90;;;;;;5052580;28;20032;-69
2023/03/18 09:11:08;;;;;;;29.67;17.88;;;11.90;99.90;;;;;;5050165;28;20155;-69
2023/03/18 09:13:35;;;;;;;29.27;16.38;;;11.90;99.90;;;;;;5050265;28;20104;-69
2023/03/18 09:16:00;;;;;;;31.67;16.73;;;11.90;99.90;;;;;;5050178;28;20045;-69
2023/03/18 09:18:28;;;;;;;25.83;17.23;;;12.00;99.90;;;;;;5050164;28;20409;-68
2023/03/18 09:20:53;;;;;;;30.38;16.58;;;12.00;99.90;;;;;;5050004;28;20041;-69
2023/03/18 09:23:20;;;;;;;27.45;14.70;;;12.10;99.90;;;;;;5050364;28;20048;-68
2023/03/18 09:25:46;;;;;;;30.35;17.60;;;12.30;99.90;;;;;;5050130;28;20134;-68
2023/03/18 09:28:13;;;;;;;28.92;18.30;;;12.70;99.90;;;;;;5050141;28;20769;-68
2023/03/18 09:30:39;;;;;;;32.50;16.27;;;12.60;99.90;;;;;;5050069;28;20045;-70
2023/03/18 09:33:05;;;;;;;37.20;18.65;;;12.60;99.90;;;;;;5050323;28;20045;-71
2023/03/18 09:35:31;;;;;;;32.55;18.35;;;12.60;99.90;;;;;;5049625;28;20041;-70
2023/03/18 09:37:57;;;;;;;27.40;18.13;;;12.60;99.90;;;;;;5049982;28;20775;-70
2023/03/18 09:40:35;;;;;;;31.30;18.40;;;12.70;99.90;;;;;;5050163;28;20036;-70
2023/03/18 09:43:26;;;;;;;31.30;18.73;;;12.80;99.90;;;;;;5049807;28;20079;-70
2023/03/18 09:46:47;;;;;;;34.90;17.05;;;13.00;99.90;;;;;;5049393;28;20118;-70
2023/03/18 09:49:16;;;;;;;32.90;17.50;;;13.10;99.90;;;;;;5006848;28;20054;-70
2023/03/18 09:52:09;;;;;;;27.60;16.65;;;13.30;99.90;;;;;;5006930;28;20057;-71
2023/03/18 09:54:45;;;;;;;27.10;17.42;;;13.30;99.90;;;;;;5006629;28;20073;-70
2023/03/18 09:57:47;;;;;;;32.38;18.90;;;13.30;99.90;;;;;;5007217;28;20050;-70
2023/03/18 10:00:24;;;;;;;29.77;15.73;;;13.30;99.90;;;;;;4929436;29;20615;-70
2023/03/18 10:02:57;;;;;;;21.08;13.82;;;13.20;99.90;;;;;;4929620;29;20130;-67
2023/03/18 10:05:49;;;;;;;21.92;14.25;;;13.20;99.90;;;;;;4928868;29;20047;-67
2023/03/18 10:08:37;;;;;;;22.40;14.07;;;13.10;99.90;;;;;;4929599;29;20063;-67
2023/03/18 10:11:11;;;;;;;19.40;13.32;;;13.10;99.90;;;;;;4929381;29;20055;-67
2023/03/18 10:13:44;;;;;;;21.38;13.85;;;13.20;99.90;;;;;;4929274;29;20062;-72
2023/03/18 10:16:18;;;;;;;21.00;12.38;;;13.30;99.90;;;;;;4929292;29;20056;-71
2023/03/18 10:18:44;;;;;;;18.10;11.88;;;13.40;99.90;;;;;;4929276;29;20062;-71
2023/03/18 10:21:35;;;;;;;18.00;12.90;;;13.40;99.90;;;;;;4929212;29;20051;-71
2023/03/18 10:24:28;;;;;;;17.42;11.95;;;13.50;99.90;;;;;;4984493;28;20650;-71
2023/03/18 10:27:08;;;;;;;15.18;10.13;;;13.50;99.90;;;;;;4986978;28;20050;-74
2023/03/18 10:29:46;;;;;;;15.18;11.23;;;13.60;99.90;;;;;;4981221;28;20184;-71
2023/03/18 10:32:30;;;;;;;18.90;11.45;;;13.80;99.90;;;;;;4981719;28;20045;-70
2023/03/18 10:35:23;;;;;;;20.15;13.07;;;13.90;99.90;;;;;;5032713;28;20501;-69
2023/03/18 10:38:11;;;;;;;;;;;13.80;99.90;;;;;;5046092;28;20370;-69
2023/03/18 10:40:40;;;;;;;17.48;11.68;;;13.90;99.90;;;;;;5048520;28;19964;-69
2023/03/18 10:43:18;;;;;;;15.52;10.68;;;13.90;99.90;;;;;;5049155;28;20076;-71
2023/03/18 10:45:46;;;;;;;16.13;10.52;;;13.90;99.90;;;;;;5048776;28;20068;-71
2023/03/18 10:48:19;;;;;;;15.13;9.43;;;13.90;99.90;;;;;;5049004;28;20087;-72
2023/03/18 10:51:00;;;;;;;15.27;8.77;;;13.90;99.90;;;;;;5048880;28;20044;-69
2023/03/18 10:53:28;;;;;;;12.68;7.65;;;13.80;99.90;;;;;;5047678;28;20040;-69
2023/03/18 10:56:05;;;;;;;11.38;7.05;;;13.80;99.90;;;;;;5047254;28;20553;-70
2023/03/18 10:58:31;;;;;;;11.88;7.93;;;13.90;99.90;;;;;;5048819;28;20041;-70
2023/03/18 11:00:57;;;;;;;10.88;7.97;;;13.90;99.90;;;;;;5048979;28;20095;-70
2023/03/18 11:03:28;;;;;;;12.68;7.63;;;13.90;99.90;;;;;;5040154;28;20446;-72
2023/03/18 11:05:56;;;;;;;10.52;7.88;;;13.90;99.90;;;;;;5037931;28;20510;-70
2023/03/18 11:08:38;;;;;;;12.93;8.13;;;13.90;99.90;;;;;;5036189;28;20573;-71
2023/03/18 11:11:26;;;;;;;13.48;8.65;;;13.90;99.90;;;;;;5026909;28;20083;-72
2023/03/18 11:13:55;;;;;;;14.55;8.32;;;14.00;99.90;;;;;;5028235;28;20120;-71
2023/03/18 11:16:34;;;;;;;10.27;7.82;;;14.20;99.90;;;;;;5028321;28;20144;-70
2023/03/18 11:19:08;;;;;;;12.63;7.75;;;14.40;99.90;;;;;;5027884;28;20050;-69
2023/03/18 11:21:34;;;;;;;16.33;9.00;;;14.40;99.90;;;;;;5396580;22;20500;-68
2023/03/18 11:24:07;;;;;;;13.13;8.48;;;14.40;99.90;;;;;;5026624;28;20073;-67
2023/03/18 11:27:03;;;;;;;14.32;9.18;;;14.40;99.90;;;;;;5021969;28;20520;-66
2023/03/18 11:29:33;;;;;;;14.82;9.80;;;14.50;99.90;;;;;;5017877;28;20041;-67
2023/03/18 11:32:00;;;;;;;13.43;9.40;;;14.50;99.90;;;;;;5025736;28;20036;-66
2023/03/18 11:34:29;;;;;;;13.55;8.95;;;14.50;99.90;;;;;;5023407;28;20067;-68
2023/03/18 11:37:03;;;;;;;15.40;10.20;;;14.50;99.90;;;;;;5027925;28;20569;-70
2023/03/18 11:39:38;;;;;;;16.10;10.15;;;14.60;99.90;;;;;;5025658;28;20037;-67
2023/03/18 11:42:20;;;;;;;14.57;9.90;;;14.70;99.90;;;;;;5021976;28;20038;-68
2023/03/18 11:44:48;;;;;;;17.77;9.80;;;14.60;99.90;;;;;;5028169;28;20045;-67
2023/03/18 11:47:26;;;;;;;19.13;11.40;;;14.70;99.90;;;;;;5028274;28;20041;-67
2023/03/18 11:49:52;;;;;;;14.18;10.20;;;14.70;99.90;;;;;;5026648;28;20751;-68
2023/03/18 11:52:30;;;;;;;20.48;11.13;;;14.70;99.90;;;;;;5027748;28;20034;-68
2023/03/18 11:55:33;;;;;;;14.70;9.48;;;14.80;99.90;;;;;;5028338;28;20102;-67
2023/03/18 11:58:31;;;;;;;13.82;9.52;;;14.90;99.90;;;;;;5026773;28;20675;-67
2023/03/18 12:01:13;;;;;;;14.95;8.65;;;14.90;99.90;;;;;;5027777;28;20081;-67
2023/03/18 12:04:07;;;;;;;16.52;9.32;;;14.90;99.90;;;;;;5028029;28;20121;-67
2023/03/18 12:06:42;;;;;;;15.63;9.73;;;14.90;99.90;;;;;;5027918;28;20500;-67
2023/03/18 12:09:37;;;;;;;15.23;9.77;;;14.90;99.90;;;;;;5028054;28;20135;-69
2023/03/18 12:12:23;;;;;;;16.45;10.05;;;15.00;99.90;;;;;;5017569;28;20099;-69
2023/03/18 12:15:17;;;;;;;11.85;8.82;;;15.10;99.90;;;;;;5027725;28;20049;-69
2023/03/18 12:18:19;;;;;;;15.82;9.32;;;15.10;99.90;;;;;;5023397;28;20053;-69
2023/03/18 12:20:49;;;;;;;13.82;9.85;;;15.10;99.90;;;;;;5023574;28;20038;-69
2023/03/18 12:23:20;;;;;;;16.92;9.55;;;15.10;99.90;;;;;;5026600;28;20471;-69
2023/03/18 12:26:13;;;;;;;15.00;9.55;;;15.10;99.90;;;;;;5025852;28;20492;-69
2023/03/18 12:29:16;;;;;;;16.48;9.73;;;15.10;99.90;;;;;;5027728;28;20045;-72
2023/03/18 12:31:49;;;;;;;13.98;8.43;;;15.10;99.90;;;;;;4984865;28;20141;-69
2023/03/18 12:34:26;;;;;;;13.63;9.70;;;15.00;99.90;;;;;;5016651;28;20128;-69
2023/03/18 12:37:23;;;;;;;14.82;9.20;;;15.00;99.90;;;;;;5030978;28;20053;-69
2023/03/18 12:40:12;;;;;;;15.88;9.45;;;15.00;99.90;;;;;;5030653;28;20049;-69
2023/03/18 12:42:59;;;;;;;15.18;10.20;;;15.00;99.90;;;;;;5030267;28;20052;-69
2023/03/18 12:45:36;;;;;;;18.50;10.77;;;15.00;99.90;;;;;;5025538;28;20069;-70
2023/03/18 12:48:14;;;;;;;18.27;11.38;;;15.10;99.90;;;;;;5024960;28;20087;-71
2023/03/18 12:50:46;;;;;;;17.50;11.25;;;15.10;99.90;;;;;;5028976;28;20042;-68